Saint Paul, Minnesota
Current Conditions -  °F | °C
As of 9:53 AM on Monday 24 Nov 2014 (Local Time) from KSTP Reporting Station
Overcast Overcast  
Wind Chill: -14°   Ceiling: 1700
Heat Index: -5°   Visibility: 10mi
Dew Point: -7°   Wind: 23mph
Humidity: 85%   Direction: 310°NW
Pressure: 29.43"   Gusts: 31mph
Location:  44.93°N, 93.07°W
Report Text: KSTP 241553Z 31020G27KT 10SM OVC017 M05/M07 A2943 RMK AO2 PK WND 31027/1552 SLP972 T10501072
Loading
Personal Weather Stations






























Interactive Weather Map New forecast layout! Learn more

10-Day Weather Forecast

Advertisements
Track Severe Weather on mobile